KHIO

Portland-Hillsboro Airport

Portland, Oregon, USA
METAR KHIO 170200Z 29003KT 4SM BR OVC010 04/03 A3032 RMK AO2 T00390028
Observed Flight Rules
Dec-17 @ 02:00 UTC (29 minutes ago) Marginal Visual Flight Rules
Wind Visibility Clouds Conditions
290° at 3 knots 4 miles
  • Overcast at 1,000' AGL
  • Mist
Temperatures Readings
Current 4°C / 39°F
Dewpoint 3°C / 37°F
Humidity 93%
Altimeter 30.32" Hg
Pressure 1027 hPa
Elevation 68
METAR KHIO 170200Z 29003KT 4SM BR OVC010 04/03 A3032 RMK AO2 T00390028
Observed Flight Rules
Dec-17 @ 02:00 UTC
(29 minutes ago)
MVFR
Wind Visibility
290° at 3 knots 4 miles
Clouds
  • Overcast at 1,000' AGL
Conditions
  • Mist
Temperature Dewpoint
4°C / 39°F 3°C / 37°F
Humidity Altimeter Pressure
93% 30.32" Hg 1027 hPa